Terminal Aerodrome Forecast
Issued by NWS

Current Version | Previous Version | Graphics & Text | Print | Product List | Glossary On
Versions: 1 2 3 4 5 6 7 8 9 10 11 12 13 14 15 16 17 18 19 20 21 22 23 24 25 26 27
000
FTUS41 KILN 220100 AAA
TAFLCK
TAF AMD
KLCK 220131Z 2202/2224 00000KT 5SM BR VCSH SCT015 BKN090
     FM220500 20004KT 5SM -SHRA VCTS BKN050CB
     FM220900 21004KT 5SM -SHRA BR SCT012 BKN035
     FM221200 22005KT P6SM VCSH BKN012
     FM221500 23007KT P6SM -SHRA VCTS BKN022CB
     FM221800 25008KT P6SM BKN035=

USA.gov is the U.S. government's official web portal to all federal, state and local government web resources and services.